createdAt,value
2023-09-27T00:03:51.905Z,5.93
2023-09-27T00:07:55.599Z,7.60
2023-09-27T00:12:05.047Z,7.50
2023-09-27T00:16:08.497Z,7.00
2023-09-27T00:20:17.646Z,6.65
2023-09-27T00:24:21.301Z,7.45
2023-09-27T00:28:26.471Z,7.03
2023-09-27T00:32:29.933Z,6.38
2023-09-27T00:36:33.624Z,7.38
2023-09-27T00:40:37.176Z,7.70
2023-09-27T00:44:42.077Z,7.22
2023-09-27T00:48:46.482Z,6.28
2023-09-27T00:52:50.752Z,5.85
2023-09-27T00:56:55.202Z,5.85
2023-09-27T01:01:00.658Z,5.95
2023-09-27T01:05:04.394Z,5.20
2023-09-27T01:09:07.729Z,6.72
2023-09-27T01:13:11.449Z,6.15
2023-09-27T01:17:16.057Z,6.65
2023-09-27T01:21:20.892Z,7.15
2023-09-27T01:25:28.310Z,6.65
2023-09-27T01:29:31.825Z,7.43
2023-09-27T01:33:34.951Z,7.95
2023-09-27T01:37:39.183Z,7.13
2023-09-27T01:41:44.019Z,6.07
2023-09-27T01:45:47.589Z,7.15
2023-09-27T01:49:51.413Z,5.25
2023-09-27T01:53:54.892Z,4.88
2023-09-27T01:58:00.184Z,5.60
2023-09-27T02:02:04.091Z,6.85
2023-09-27T02:06:07.278Z,5.53
2023-09-27T02:10:11.774Z,6.60
2023-09-27T02:14:16.755Z,5.80
2023-09-27T02:18:20.606Z,6.18
2023-09-27T02:22:24.216Z,6.55
2023-09-27T02:26:28.004Z,6.15
2023-09-27T02:30:33.742Z,4.72
2023-09-27T02:34:37.208Z,3.83
2023-09-27T02:38:40.467Z,5.15
2023-09-27T02:42:45.914Z,4.65
2023-09-27T02:46:50.763Z,6.40
2023-09-27T02:50:55.653Z,5.43
2023-09-27T02:54:58.907Z,4.40
2023-09-27T02:59:02.677Z,7.20
2023-09-27T03:03:08.853Z,8.85
2023-09-27T03:07:13.014Z,7.43
2023-09-27T03:11:16.631Z,7.40
2023-09-27T03:15:21.298Z,7.93
2023-09-27T03:19:26.043Z,6.63
2023-09-27T03:23:30.034Z,7.22
2023-09-27T03:27:33.305Z,7.68
2023-09-27T03:31:36.589Z,6.78
2023-09-27T03:35:41.605Z,5.30
2023-09-27T03:39:45.524Z,6.25
2023-09-27T03:43:51.471Z,8.73
2023-09-27T03:47:55.249Z,6.78
2023-09-27T03:52:00.092Z,7.68
2023-09-27T03:56:04.272Z,7.13
2023-09-27T04:00:10.369Z,7.03
2023-09-27T04:04:13.913Z,7.53
2023-09-27T04:08:19.128Z,7.85
2023-09-27T04:12:22.957Z,8.30
2023-09-27T04:16:29.398Z,8.77
2023-09-27T04:20:35.792Z,9.48
2023-09-27T04:24:41.245Z,9.73
2023-09-27T04:28:44.669Z,6.18
2023-09-27T04:32:52.183Z,5.28
2023-09-27T04:36:55.968Z,5.38
2023-09-27T04:41:00.855Z,4.55
2023-09-27T04:45:04.900Z,5.40
2023-09-27T04:49:08.284Z,6.28
2023-09-27T04:53:11.879Z,6.15
2023-09-27T04:57:17.156Z,7.95
2023-09-27T05:01:20.697Z,8.25
2023-09-27T05:05:23.974Z,7.55
2023-09-27T05:09:28.248Z,7.22
2023-09-27T05:13:33.016Z,8.45
2023-09-27T05:17:37.016Z,5.75
2023-09-27T05:21:41.210Z,7.22
2023-09-27T05:25:45.517Z,7.40
2023-09-27T05:29:50.421Z,8.48
2023-09-27T05:33:53.944Z,6.63
2023-09-27T05:38:00.276Z,6.07
2023-09-27T05:42:03.893Z,5.57
2023-09-27T05:46:09.008Z,5.97
2023-09-27T05:50:14.468Z,6.43
2023-09-27T05:54:20.615Z,6.43
2023-09-27T05:58:24.006Z,7.82
2023-09-27T06:02:32.618Z,7.38
2023-09-27T06:06:38.324Z,7.93
2023-09-27T06:10:42.310Z,6.95
2023-09-27T06:14:46.307Z,10.00
2023-09-27T06:18:51.675Z,8.18
2023-09-27T06:22:55.610Z,5.38
2023-09-27T06:26:59.774Z,5.85
2023-09-27T06:31:04.262Z,7.60
2023-09-27T06:35:14.535Z,10.40
2023-09-27T06:39:20.575Z,8.93
2023-09-27T06:43:25.380Z,8.60
2023-09-27T06:47:30.486Z,9.10
2023-09-27T06:51:35.258Z,8.63
2023-09-27T06:55:38.487Z,9.68
2023-09-27T06:59:41.813Z,9.07
2023-09-27T07:03:45.331Z,7.82
2023-09-27T07:07:50.446Z,9.15
2023-09-27T07:11:54.503Z,9.43
2023-09-27T07:15:57.759Z,8.85
2023-09-27T07:20:00.961Z,9.52
2023-09-27T07:24:06.417Z,8.32
2023-09-27T07:28:10.004Z,8.02
2023-09-27T07:32:13.356Z,7.38
2023-09-27T07:36:17.770Z,7.88
2023-09-27T07:40:22.737Z,9.32
2023-09-27T07:44:27.872Z,7.55
2023-09-27T07:48:33.487Z,8.57
2023-09-27T07:52:39.517Z,7.80
2023-09-27T07:56:45.189Z,7.72
2023-09-27T08:00:49.076Z,7.70
2023-09-27T08:04:53.309Z,7.43
2023-09-27T08:08:59.256Z,7.28
2023-09-27T08:13:05.611Z,7.82
2023-09-27T08:17:09.214Z,7.88
2023-09-27T08:21:12.756Z,5.90
2023-09-27T08:25:17.021Z,8.13
2023-09-27T08:29:23.008Z,8.35
2023-09-27T08:33:27.279Z,9.00
2023-09-27T08:37:31.015Z,7.95
2023-09-27T08:41:35.180Z,8.52
2023-09-27T08:49:43.246Z,7.60
2023-09-27T08:53:46.484Z,7.45
2023-09-27T08:57:52.603Z,8.52
2023-09-27T09:01:56.927Z,7.40
2023-09-27T09:06:02.006Z,7.95
2023-09-27T09:10:05.856Z,6.75
2023-09-27T09:14:11.989Z,5.72
2023-09-27T09:18:29.589Z,6.13
2023-09-27T09:22:45.697Z,6.03
2023-09-27T09:26:51.314Z,6.63
2023-09-27T09:30:55.578Z,6.53
2023-09-27T09:34:59.098Z,7.13
2023-09-27T09:39:14.980Z,10.20
2023-09-27T09:43:31.494Z,8.13
2023-09-27T09:47:37.026Z,8.73
2023-09-27T09:51:43.176Z,8.25
2023-09-27T09:56:25.275Z,9.95
2023-09-27T10:00:18.734Z,8.60
2023-09-27T10:04:25.263Z,8.88
2023-09-27T10:08:36.375Z,8.57
2023-09-27T10:12:46.362Z,9.77
2023-09-27T10:16:52.371Z,8.07
2023-09-27T10:21:04.676Z,8.50
2023-09-27T10:29:19.205Z,9.52
2023-09-27T10:33:34.026Z,8.63
2023-09-27T10:38:00.380Z,9.82
2023-09-27T10:42:03.809Z,11.18
2023-09-27T10:46:09.725Z,11.13
2023-09-27T10:50:14.571Z,9.77
2023-09-27T10:54:18.045Z,10.60
2023-09-27T10:58:21.268Z,10.32
2023-09-27T11:02:33.819Z,9.35
2023-09-27T11:06:38.524Z,9.23
2023-09-27T11:10:42.647Z,9.77
2023-09-27T11:14:48.631Z,10.45
2023-09-27T11:18:54.145Z,9.32
2023-09-27T11:23:01.044Z,10.00
2023-09-27T11:27:04.833Z,9.57
2023-09-27T11:31:09.025Z,8.27
2023-09-27T11:35:21.455Z,8.85
2023-09-27T11:39:29.736Z,9.43
2023-09-27T11:43:35.162Z,8.70
2023-09-27T11:47:48.091Z,8.10
2023-09-27T11:51:52.978Z,7.72
2023-09-27T11:55:58.566Z,7.35
2023-09-27T12:00:03.202Z,6.93
2023-09-27T12:04:07.563Z,6.15
2023-09-27T12:08:13.029Z,8.13
2023-09-27T12:12:16.085Z,7.03
2023-09-27T12:16:22.124Z,7.80
2023-09-27T12:20:39.623Z,6.13
2023-09-27T12:24:47.232Z,4.90
2023-09-27T12:28:50.576Z,5.90
2023-09-27T12:32:54.727Z,6.00
2023-09-27T12:36:58.940Z,6.63
2023-09-27T12:41:06.404Z,6.60
2023-09-27T12:45:11.481Z,6.15
2023-09-27T12:49:19.281Z,5.75
2023-09-27T12:53:22.599Z,5.20
2023-09-27T12:57:28.048Z,5.18
2023-09-27T13:01:31.613Z,4.68
2023-09-27T13:05:37.299Z,5.00
2023-09-27T13:09:42.313Z,4.82
2023-09-27T13:13:47.192Z,3.95
2023-09-27T13:17:50.534Z,4.47
2023-09-27T13:21:54.009Z,4.43
2023-09-27T13:25:58.137Z,3.67
2023-09-27T13:30:04.740Z,3.78
2023-09-27T13:34:11.759Z,3.60
2023-09-27T13:38:15.912Z,3.33
2023-09-27T13:42:19.958Z,3.75
2023-09-27T13:46:25.118Z,3.17
2023-09-27T13:50:28.777Z,3.35
2023-09-27T13:54:33.675Z,3.38
2023-09-27T13:58:40.551Z,4.65
2023-09-27T14:02:45.723Z,4.22
2023-09-27T14:06:48.809Z,3.65
2023-09-27T14:10:52.539Z,3.70
2023-09-27T14:14:56.196Z,4.35
2023-09-27T14:19:04.586Z,4.30
2023-09-27T14:23:07.778Z,4.22
2023-09-27T14:27:11.300Z,4.65
2023-09-27T14:31:17.621Z,3.63
2023-09-27T14:35:22.598Z,3.70
2023-09-27T14:39:25.907Z,4.88
2023-09-27T14:43:30.301Z,4.22
2023-09-27T14:47:34.075Z,3.50
2023-09-27T14:51:39.071Z,3.42
2023-09-27T14:55:44.848Z,3.50
2023-09-27T14:59:48.091Z,3.97
2023-09-27T15:03:54.219Z,3.65
2023-09-27T15:08:02.455Z,3.42
2023-09-27T15:12:05.942Z,2.90
2023-09-27T15:16:09.681Z,2.83
2023-09-27T15:20:15.869Z,2.20
2023-09-27T15:24:23.130Z,2.92
2023-09-27T15:28:26.479Z,2.53
2023-09-27T15:32:30.258Z,2.47
2023-09-27T15:36:34.618Z,2.65
2023-09-27T15:40:39.330Z,2.50
2023-09-27T15:44:42.797Z,2.33
2023-09-27T15:48:46.314Z,2.72
2023-09-27T15:52:50.183Z,2.60
2023-09-27T15:56:55.254Z,2.85
2023-09-27T16:00:58.446Z,2.47
2023-09-27T16:05:02.254Z,2.60
2023-09-27T16:09:07.069Z,3.03
2023-09-27T16:13:11.982Z,2.40
2023-09-27T16:17:15.379Z,2.10
2023-09-27T16:21:20.839Z,2.50
2023-09-27T16:25:25.302Z,2.92
2023-09-27T16:29:30.502Z,2.70
2023-09-27T16:33:41.991Z,2.47
2023-09-27T16:37:45.449Z,3.17
2023-09-27T16:41:49.125Z,2.95
2023-09-27T16:45:53.746Z,2.45
2023-09-27T16:49:57.694Z,3.08
2023-09-27T16:54:02.042Z,2.90
2023-09-27T16:58:07.410Z,3.20
2023-09-27T17:02:12.618Z,3.60
2023-09-27T17:06:20.085Z,3.13
2023-09-27T17:10:24.071Z,4.00
2023-09-27T17:14:27.737Z,3.33
2023-09-27T17:18:34.083Z,2.45
2023-09-27T17:22:37.761Z,3.50
2023-09-27T17:26:40.834Z,3.05
2023-09-27T17:30:44.337Z,3.50
2023-09-27T17:34:49.524Z,3.08
2023-09-27T17:38:53.201Z,3.55
2023-09-27T17:42:57.571Z,4.00
2023-09-27T17:47:01.069Z,3.58
2023-09-27T17:51:06.413Z,3.78
2023-09-27T17:55:13.039Z,4.57
2023-09-27T17:59:18.728Z,4.30
2023-09-27T18:03:22.129Z,4.55
2023-09-27T18:07:28.318Z,4.50
2023-09-27T18:11:31.706Z,4.47
2023-09-27T18:15:37.239Z,6.18
2023-09-27T18:19:40.949Z,5.60
2023-09-27T18:23:46.611Z,4.50
2023-09-27T18:27:50.334Z,5.15
2023-09-27T18:31:54.037Z,5.15
2023-09-27T18:35:57.789Z,5.13
2023-09-27T18:40:04.919Z,4.50
2023-09-27T18:44:08.671Z,5.53
2023-09-27T18:48:21.740Z,5.07
2023-09-27T18:52:25.330Z,4.70
2023-09-27T18:56:34.799Z,4.68
2023-09-27T19:00:39.340Z,3.60
2023-09-27T19:04:45.539Z,5.05
2023-09-27T19:08:49.899Z,3.95
2023-09-27T19:12:59.630Z,3.42
2023-09-27T19:17:04.340Z,3.83
2023-09-27T19:21:10.392Z,4.10
2023-09-27T19:25:14.834Z,3.83
2023-09-27T19:29:19.940Z,4.13
2023-09-27T19:33:25.995Z,3.83
2023-09-27T19:37:29.267Z,3.22
2023-09-27T19:41:34.890Z,4.10
2023-09-27T19:45:40.680Z,3.90
2023-09-27T19:49:43.780Z,2.95
2023-09-27T19:53:47.517Z,2.72
2023-09-27T19:57:54.917Z,3.20
2023-09-27T20:02:00.825Z,3.42
2023-09-27T20:06:04.328Z,3.83
2023-09-27T20:10:10.994Z,3.00
2023-09-27T20:14:14.542Z,3.00
2023-09-27T20:18:20.168Z,3.05
2023-09-27T20:22:25.971Z,2.83
2023-09-27T20:26:30.612Z,3.90
2023-09-27T20:30:34.203Z,2.72
2023-09-27T20:34:39.582Z,2.35
2023-09-27T20:38:44.660Z,2.92
2023-09-27T20:42:48.137Z,2.67
2023-09-27T20:46:52.684Z,2.83
2023-09-27T20:50:59.009Z,3.30
2023-09-27T20:55:03.190Z,3.35
2023-09-27T20:59:07.594Z,2.80
2023-09-27T21:03:10.949Z,2.67
2023-09-27T21:07:15.624Z,2.70
2023-09-27T21:11:19.222Z,3.05
2023-09-27T21:15:22.709Z,2.67
2023-09-27T21:19:27.113Z,2.58
2023-09-27T21:23:32.238Z,2.97
2023-09-27T21:27:36.177Z,2.97
2023-09-27T21:31:39.877Z,3.17
2023-09-27T21:35:44.544Z,3.10
2023-09-27T21:39:49.604Z,3.70
2023-09-27T21:43:53.228Z,3.38
2023-09-27T21:47:58.276Z,3.47
2023-09-27T21:52:01.833Z,4.95
2023-09-27T21:56:07.159Z,3.90
2023-09-27T22:00:21.465Z,4.47
2023-09-27T22:04:24.665Z,3.65
2023-09-27T22:08:28.242Z,3.45
2023-09-27T22:12:33.107Z,4.18
2023-09-27T22:16:37.947Z,3.95
2023-09-27T22:20:46.161Z,4.78
2023-09-27T22:24:49.783Z,4.68
2023-09-27T22:28:57.266Z,5.43
2023-09-27T22:33:05.939Z,3.75
2023-09-27T22:37:09.563Z,3.83
2023-09-27T22:41:17.772Z,4.57
2023-09-27T22:45:36.374Z,5.10
2023-09-27T22:49:41.991Z,5.65
2023-09-27T22:53:46.503Z,6.28
2023-09-27T22:57:50.666Z,6.45
2023-09-27T23:01:57.196Z,7.03
2023-09-27T23:06:02.961Z,6.57
2023-09-27T23:10:13.461Z,7.95
2023-09-27T23:14:23.456Z,8.98
2023-09-27T23:18:31.706Z,7.93
2023-09-27T23:22:55.275Z,9.27
2023-09-27T23:27:05.037Z,7.97
2023-09-27T23:31:10.904Z,7.45
2023-09-27T23:35:19.290Z,7.07
2023-09-27T23:39:24.760Z,7.32
2023-09-27T23:43:38.892Z,7.72
2023-09-27T23:47:46.063Z,7.05
2023-09-27T23:51:55.234Z,6.68
2023-09-27T23:56:01.123Z,7.72
